METAR = EDDE 180520Z 22005KT CAVOK 12/11 Q1013 NOSIG

TAF = TAF EDDE 180500Z 1806/1906 22004KT CAVOK BECMG 1809/1811 28006KT BECMG 1817/1819 22005KT

METAR EDDE Decoded:

STATION........ EDDE
OBSERVED....... Thu Jul 18, 07:20 MEST
NOW............ Thu Jul 18, 07:26 MEST
AGE............ 6 min ago
WIND........... SW at 9 km/h
VISIBILITY..... more than 10 km
CLOUDS......... clear skies
TEMP........... 54°F (12°C)
DEWPT.......... 52°F (11°C)
HUMIDITY....... 94%
BAROMETER...... 1013 hPa (29.91 in Hg)


ICAO-Code: